X  Sluiten METAR luchtvaart weer gegevens      K49A Gilmer County Airport
Temperatuur
61°F Temperatuur
61°F Dauwpunt
100% Vochtigheid



Wind
0 MPH
0 KM/U
0 M/S
0 KTS



Kalm
N
Huidig weer

Lichte Regen, Mist Lichte Regen, Mist
Luchtdruk 1019.62 (hPa) - 30.11 (inHg)
Zicht 0.2 (mijl) - 0.4 (km)
Vliegveld
Vliegveld code K49A

Locatie : Gilmer County Airport
Afstand: 18 (mi)

Metar:
K49A 091215Z AUTO 00000KT M1/4SM -RA FG OVC002 16/16 A3011 RMK AO2

Tijd: 12-09-2022 07:15 EST